Time;durP1;ratioP1;P1;durP2;ratioP2;P2;SDS_P1;SDS_P2;PMS_P1;PMS_P2;Temp;Humidity;BMP_temperature;BMP_pressure;BME280_temperature;BME280_humidity;BME280_pressure;Samples;Min_cycle;Max_cycle;Signal;HPM_P1;HPM_P2
2023/07/10 00:00:24;;;;;;;29.23;22.60;;;19.70;99.90;;;;;;4953679;28;20126;-48
2023/07/10 00:02:51;;;;;;;28.13;21.60;;;19.70;99.90;;;;;;4969228;28;20034;-47
2023/07/10 00:05:19;;;;;;;26.17;21.30;;;19.80;99.90;;;;;;4937325;28;20372;-49
2023/07/10 00:07:45;;;;;;;27.27;20.33;;;19.70;99.90;;;;;;4953823;28;20395;-50
2023/07/10 00:10:13;;;;;;;27.05;21.00;;;19.70;99.90;;;;;;4953617;28;20047;-47
2023/07/10 00:12:41;;;;;;;30.38;22.77;;;19.80;99.90;;;;;;4953317;28;20051;-50
2023/07/10 00:15:15;;;;;;;26.52;20.42;;;19.80;99.90;;;;;;4953637;28;20530;-48
2023/07/10 00:17:40;;;;;;;27.17;20.77;;;19.60;99.90;;;;;;4954923;28;20043;-44
2023/07/10 00:20:14;;;;;;;27.45;20.65;;;19.60;99.90;;;;;;4971053;28;20458;-47
2023/07/10 00:22:39;;;;;;;28.17;21.27;;;19.60;99.90;;;;;;4935881;28;20047;-46
2023/07/10 00:25:05;;;;;;;31.05;21.77;;;19.70;99.90;;;;;;4952948;28;20039;-48
2023/07/10 00:27:31;;;;;;;28.17;20.63;;;19.60;99.90;;;;;;4952931;28;20612;-49
2023/07/10 00:29:57;;;;;;;31.88;22.10;;;19.80;99.90;;;;;;4952882;28;20067;-45
2023/07/10 00:32:22;;;;;;;30.95;22.60;;;19.80;99.90;;;;;;4955673;28;20043;-48
2023/07/10 00:34:48;;;;;;;29.85;23.33;;;19.60;99.90;;;;;;4953874;28;20103;-45
2023/07/10 00:37:13;;;;;;;28.95;22.50;;;19.80;99.90;;;;;;4953083;28;20439;-47
2023/07/10 00:39:39;;;;;;;28.10;21.88;;;19.90;99.90;;;;;;4952659;28;20047;-44
2023/07/10 00:42:13;;;;;;;29.08;23.33;;;19.60;99.90;;;;;;4954277;28;20394;-47
2023/07/10 00:44:52;;;;;;;29.35;22.35;;;19.90;99.90;;;;;;4951805;28;20063;-47
2023/07/10 00:47:37;;;;;;;29.92;23.30;;;19.60;99.90;;;;;;4954956;28;20428;-44
2023/07/10 00:50:08;;;;;;;32.72;23.73;;;19.80;99.90;;;;;;4950751;28;20043;-45
2023/07/10 00:52:46;;;;;;;30.15;22.02;;;19.50;99.90;;;;;;4952493;28;20039;-47
2023/07/10 00:55:27;;;;;;;30.27;22.63;;;19.70;99.90;;;;;;4956965;28;20048;-45
2023/07/10 00:58:21;;;;;;;34.25;24.13;;;19.50;99.90;;;;;;4968562;28;20130;-47
2023/07/10 01:01:10;;;;;;;30.27;23.35;;;19.70;99.90;;;;;;4962070;28;20042;-47
2023/07/10 01:03:39;;;;;;;33.00;22.92;;;19.60;99.90;;;;;;4968902;28;20054;-44
2023/07/10 01:06:43;;;;;;;29.05;23.40;;;19.70;99.90;;;;;;4935810;28;20070;-49
2023/07/10 01:09:09;;;;;;;27.50;23.77;;;19.60;99.90;;;;;;4877678;29;20053;-46
2023/07/10 01:11:36;;;;;;;28.23;22.83;;;19.40;99.90;;;;;;4883179;29;20394;-46
2023/07/10 01:14:05;;;;;;;29.83;23.30;;;19.50;99.90;;;;;;4923590;28;20636;-45
2023/07/10 01:16:32;;;;;;;29.67;22.92;;;19.40;99.90;;;;;;4971946;28;20051;-48
2023/07/10 01:18:58;;;;;;;28.58;23.15;;;19.50;99.90;;;;;;4967776;28;20042;-50
2023/07/10 01:21:31;;;;;;;32.63;25.35;;;19.60;99.90;;;;;;4959546;28;20055;-44
2023/07/10 01:24:00;;;;;;;30.58;24.35;;;19.50;99.90;;;;;;4952664;28;20039;-50
2023/07/10 01:26:27;;;;;;;30.95;23.10;;;19.40;99.90;;;;;;4966823;28;20041;-48
2023/07/10 01:28:54;;;;;;;27.30;23.02;;;19.40;99.90;;;;;;4936125;28;20054;-45
2023/07/10 01:31:21;;;;;;;25.45;22.58;;;19.60;99.90;;;;;;4935494;28;20091;-45
2023/07/10 01:33:56;;;;;;;27.65;21.52;;;19.40;99.90;;;;;;4952667;28;20039;-46
2023/07/10 01:36:34;;;;;;;27.95;22.27;;;19.40;99.90;;;;;;4952392;28;20064;-45
2023/07/10 01:39:09;;;;;;;29.67;22.42;;;19.50;99.90;;;;;;4957507;28;20390;-45
2023/07/10 01:41:38;;;;;;;28.30;21.80;;;19.50;99.90;;;;;;4971946;28;20520;-48
2023/07/10 01:44:33;;;;;;;26.17;21.63;;;19.50;99.90;;;;;;4961635;28;20039;-45
2023/07/10 01:47:01;;;;;;;30.50;20.73;;;19.40;99.90;;;;;;4952769;28;20126;-46
2023/07/10 01:49:30;;;;;;;24.63;20.40;;;19.50;99.90;;;;;;4957620;28;20039;-48
2023/07/10 01:51:58;;;;;;;27.02;20.98;;;19.30;99.90;;;;;;4968694;28;20042;-47
2023/07/10 01:54:24;;;;;;;28.98;20.80;;;19.50;99.90;;;;;;4967557;28;20042;-47
2023/07/10 01:56:50;;;;;;;29.58;20.95;;;19.30;99.90;;;;;;4956201;28;20410;-46
2023/07/10 01:59:16;;;;;;;23.02;19.70;;;19.50;99.90;;;;;;4955925;28;20380;-48
2023/07/10 02:01:42;;;;;;;21.38;19.08;;;19.50;99.90;;;;;;4956119;28;20099;-46
2023/07/10 02:04:07;;;;;;;23.27;18.70;;;19.30;99.90;;;;;;4958566;28;20560;-46
2023/07/10 02:06:35;;;;;;;27.05;19.27;;;19.30;99.90;;;;;;4975274;28;20035;-49
2023/07/10 02:09:01;;;;;;;22.70;18.52;;;19.40;99.90;;;;;;4975350;28;20046;-50
2023/07/10 02:11:27;;;;;;;24.92;18.00;;;19.40;99.90;;;;;;4966344;28;20467;-50
2023/07/10 02:13:53;;;;;;;24.33;16.15;;;19.30;99.90;;;;;;4969892;28;20423;-48
2023/07/10 02:16:19;;;;;;;21.52;18.05;;;19.50;99.90;;;;;;4968245;28;20050;-50
2023/07/10 02:18:44;;;;;;;23.52;16.65;;;19.30;99.90;;;;;;4955616;28;20118;-47
2023/07/10 02:21:10;;;;;;;21.17;15.68;;;19.40;99.90;;;;;;4955928;28;20122;-49
2023/07/10 02:23:37;;;;;;;18.63;13.68;;;19.50;99.90;;;;;;4922390;28;20035;-47
2023/07/10 02:26:04;;;;;;;17.13;12.70;;;19.20;99.90;;;;;;4961248;28;20089;-44
2023/07/10 02:28:30;;;;;;;17.77;12.18;;;19.20;99.90;;;;;;4957218;28;20043;-46
2023/07/10 02:30:56;;;;;;;16.20;11.25;;;19.40;99.90;;;;;;4972822;28;20035;-49
2023/07/10 02:33:22;;;;;;;15.52;11.00;;;19.40;99.90;;;;;;4955362;28;20122;-50
2023/07/10 02:35:48;;;;;;;12.32;9.88;;;19.20;99.90;;;;;;4955550;28;20047;-48
2023/07/10 02:38:14;;;;;;;14.48;10.07;;;19.10;99.90;;;;;;4921860;28;20051;-46
2023/07/10 02:40:44;;;;;;;12.23;7.68;;;19.30;99.90;;;;;;4955094;28;20035;-44
2023/07/10 02:43:10;;;;;;;11.48;6.60;;;19.30;99.90;;;;;;4954733;28;20043;-46
2023/07/10 02:45:36;;;;;;;6.88;4.60;;;19.10;99.90;;;;;;4962844;28;20086;-49
2023/07/10 02:48:03;;;;;;;9.65;5.03;;;19.20;99.90;;;;;;4974527;28;20038;-46
2023/07/10 02:50:29;;;;;;;7.95;3.97;;;18.90;99.90;;;;;;4958236;28;20491;-48
2023/07/10 02:52:54;;;;;;;7.10;3.50;;;18.90;99.90;;;;;;4955093;28;20035;-48
2023/07/10 02:55:20;;;;;;;6.57;3.03;;;18.90;99.90;;;;;;4973896;28;20054;-47
2023/07/10 02:57:46;;;;;;;8.40;2.70;;;18.90;99.90;;;;;;4938756;28;20054;-49
2023/07/10 03:00:12;;;;;;;5.68;2.60;;;18.80;99.90;;;;;;4968228;28;20042;-50
2023/07/10 03:02:38;;;;;;;7.65;2.55;;;18.80;99.90;;;;;;4967491;28;20134;-47
2023/07/10 03:05:04;;;;;;;5.57;2.40;;;18.80;99.90;;;;;;4940727;28;20078;-49
2023/07/10 03:07:30;;;;;;;5.22;2.58;;;18.80;99.90;;;;;;4974300;28;20070;-47
2023/07/10 03:09:56;;;;;;;7.82;2.33;;;18.70;99.90;;;;;;4937736;28;20048;-45
2023/07/10 03:12:22;;;;;;;6.80;2.67;;;18.60;99.90;;;;;;4937561;28;20062;-49
2023/07/10 03:14:49;;;;;;;5.97;2.30;;;18.60;99.90;;;;;;4937117;28;20047;-45
2023/07/10 03:17:15;;;;;;;4.32;2.00;;;18.60;99.90;;;;;;4959319;28;20381;-44
2023/07/10 03:19:41;;;;;;;7.00;2.20;;;18.50;99.90;;;;;;4965219;28;20039;-50
2023/07/10 03:22:06;;;;;;;5.93;1.98;;;18.50;99.90;;;;;;4956939;28;21005;-48
2023/07/10 03:24:32;;;;;;;5.15;2.15;;;18.50;99.90;;;;;;4973610;28;20045;-45
2023/07/10 03:26:58;;;;;;;4.97;2.20;;;18.50;99.90;;;;;;4938073;28;20050;-47
2023/07/10 03:29:24;;;;;;;4.55;2.13;;;18.40;99.90;;;;;;4954420;28;20454;-46
2023/07/10 03:31:49;;;;;;;6.63;2.28;;;18.40;99.90;;;;;;4936513;28;20051;-47
2023/07/10 03:34:15;;;;;;;4.78;1.70;;;18.40;99.90;;;;;;4954217;28;20035;-44
2023/07/10 03:36:42;;;;;;;7.00;2.00;;;18.50;99.90;;;;;;4966246;28;20078;-50
2023/07/10 03:39:08;;;;;;;6.03;1.90;;;18.30;99.90;;;;;;4958328;28;20476;-47
2023/07/10 03:41:34;;;;;;;5.07;1.67;;;18.40;99.90;;;;;;4964290;28;20027;-46
2023/07/10 03:44:00;;;;;;;6.65;2.05;;;18.40;99.90;;;;;;4973028;28;20078;-45
2023/07/10 03:46:25;;;;;;;6.18;2.00;;;18.40;99.90;;;;;;4961941;28;20035;-50
2023/07/10 03:48:51;;;;;;;4.95;1.92;;;18.40;99.90;;;;;;4959187;28;20046;-46
2023/07/10 03:51:18;;;;;;;4.10;1.73;;;18.50;99.90;;;;;;4961071;28;20426;-49
2023/07/10 03:53:47;;;;;;;5.65;1.85;;;18.40;99.90;;;;;;4959263;28;20114;-49
2023/07/10 03:56:13;;;;;;;6.22;2.08;;;18.40;99.90;;;;;;4953726;28;20070;-47
2023/07/10 03:58:42;;;;;;;5.18;1.90;;;18.40;99.90;;;;;;4936639;28;20078;-48
2023/07/10 04:01:08;;;;;;;7.53;2.08;;;18.50;99.90;;;;;;4953970;28;20039;-44
2023/07/10 04:03:35;;;;;;;4.72;1.90;;;18.40;99.90;;;;;;4953664;28;20071;-49
2023/07/10 04:06:02;;;;;;;5.10;1.90;;;18.40;99.90;;;;;;4954050;28;20081;-47
2023/07/10 04:08:36;;;;;;;6.82;2.25;;;18.50;99.90;;;;;;4936657;28;20055;-49
2023/07/10 04:11:10;;;;;;;4.05;2.05;;;18.50;99.90;;;;;;4953105;28;20043;-48
2023/07/10 04:13:37;;;;;;;7.95;3.10;;;18.50;99.90;;;;;;4970293;28;20047;-45
2023/07/10 04:16:10;;;;;;;7.97;2.40;;;18.50;99.90;;;;;;4972751;28;20078;-46
2023/07/10 04:18:38;;;;;;;5.15;2.05;;;18.60;99.90;;;;;;4972407;28;20150;-47
2023/07/10 04:21:11;;;;;;;5.78;2.00;;;18.50;99.90;;;;;;4970411;28;20061;-47
2023/07/10 04:23:36;;;;;;;6.15;1.90;;;18.50;99.90;;;;;;4963088;28;20499;-46
2023/07/10 04:26:02;;;;;;;3.65;1.63;;;18.50;99.90;;;;;;4965369;28;20035;-44
2023/07/10 04:28:28;;;;;;;5.57;1.73;;;18.40;99.90;;;;;;4953314;28;20043;-47
2023/07/10 04:30:54;;;;;;;7.50;1.90;;;18.50;99.90;;;;;;4963502;28;20398;-50
2023/07/10 04:33:21;;;;;;;3.80;1.55;;;18.40;99.90;;;;;;4972331;28;20046;-44
2023/07/10 04:35:55;;;;;;;4.15;1.70;;;18.40;99.90;;;;;;4968528;28;20035;-46
2023/07/10 04:38:26;;;;;;;5.85;1.63;;;18.50;99.90;;;;;;4964217;28;20133;-46
2023/07/10 04:40:54;;;;;;;5.10;1.90;;;18.50;99.90;;;;;;4964208;28;20046;-48
2023/07/10 04:43:20;;;;;;;7.47;2.05;;;18.40;99.90;;;;;;4972176;28;20089;-49
2023/07/10 04:45:46;;;;;;;5.38;2.05;;;18.40;99.90;;;;;;4959412;28;20035;-45
2023/07/10 04:48:12;;;;;;;6.60;1.85;;;18.40;99.90;;;;;;4953308;28;20033;-48
2023/07/10 04:50:38;;;;;;;6.05;2.05;;;18.40;99.90;;;;;;4953098;28;20487;-46
2023/07/10 04:53:03;;;;;;;7.95;2.00;;;18.40;99.90;;;;;;4956159;28;20039;-47
2023/07/10 04:55:29;;;;;;;5.35;2.17;;;18.40;99.90;;;;;;4952730;28;20123;-47
2023/07/10 04:57:55;;;;;;;5.90;1.90;;;18.30;99.90;;;;;;4935361;28;20546;-47
2023/07/10 05:00:20;;;;;;;3.75;1.60;;;18.40;99.90;;;;;;4952946;28;20387;-49
2023/07/10 05:02:46;;;;;;;7.35;2.08;;;18.40;99.90;;;;;;4920295;28;20093;-48
2023/07/10 05:05:12;;;;;;;5.20;1.70;;;18.40;99.90;;;;;;4935342;28;20054;-48
2023/07/10 05:07:37;;;;;;;5.30;1.88;;;18.40;99.90;;;;;;4953037;28;20035;-48
2023/07/10 05:10:04;;;;;;;5.05;2.05;;;18.30;99.90;;;;;;4935391;28;20154;-49
2023/07/10 05:12:29;;;;;;;5.60;2.03;;;18.50;99.90;;;;;;4952781;28;20474;-47
2023/07/10 05:14:55;;;;;;;10.07;2.20;;;18.50;99.90;;;;;;4939622;28;20049;-49
2023/07/10 05:17:21;;;;;;;6.35;2.05;;;18.50;99.90;;;;;;4940167;28;20074;-48
2023/07/10 05:19:47;;;;;;;5.32;2.08;;;18.50;99.90;;;;;;4935225;28;20119;-48
2023/07/10 05:22:12;;;;;;;8.55;2.38;;;18.50;99.90;;;;;;4952664;28;20094;-47
2023/07/10 05:24:38;;;;;;;7.35;2.33;;;18.60;99.90;;;;;;4959735;28;20095;-47
2023/07/10 05:27:04;;;;;;;21.23;3.22;;;18.50;99.90;;;;;;4971158;28;20051;-47
2023/07/10 05:29:30;;;;;;;5.88;1.95;;;18.60;99.90;;;;;;4956338;28;20047;-49
2023/07/10 05:31:56;;;;;;;5.72;2.10;;;18.60;99.90;;;;;;4938394;28;20095;-48
2023/07/10 05:34:23;;;;;;;6.45;2.00;;;18.70;99.90;;;;;;4956380;28;20046;-49
2023/07/10 05:36:49;;;;;;;6.45;2.15;;;18.70;99.90;;;;;;4952967;28;20368;-49
2023/07/10 05:39:15;;;;;;;7.90;2.22;;;18.70;99.90;;;;;;4946371;28;20086;-48
2023/07/10 05:41:41;;;;;;;5.68;2.35;;;18.80;99.90;;;;;;4930586;28;20522;-48
2023/07/10 05:44:07;;;;;;;8.80;2.28;;;18.70;99.90;;;;;;4946660;28;20038;-46
2023/07/10 05:46:33;;;;;;;8.35;2.22;;;18.80;99.90;;;;;;4947684;28;20391;-46
2023/07/10 05:48:58;;;;;;;6.43;2.10;;;18.70;99.90;;;;;;4947401;28;20043;-46
2023/07/10 05:51:24;;;;;;;6.97;2.22;;;18.80;99.90;;;;;;4946427;28;20043;-48
2023/07/10 05:53:50;;;;;;;7.75;2.45;;;18.90;99.90;;;;;;4947174;28;20392;-45
2023/07/10 05:56:16;;;;;;;9.18;2.38;;;19.10;99.90;;;;;;4929683;28;20035;-46
2023/07/10 05:58:41;;;;;;;8.45;2.47;;;19.00;99.90;;;;;;4947166;28;20475;-46
2023/07/10 06:01:09;;;;;;;9.15;2.58;;;19.10;99.90;;;;;;4929199;28;20031;-47
2023/07/10 06:03:35;;;;;;;7.00;2.42;;;19.10;99.90;;;;;;4946587;28;20039;-46
2023/07/10 06:06:05;;;;;;;7.97;2.72;;;19.00;99.90;;;;;;4946537;28;20314;-46
2023/07/10 06:08:32;;;;;;;8.25;3.13;;;19.00;99.90;;;;;;4929751;28;20456;-48
2023/07/10 06:10:58;;;;;;;9.48;3.70;;;18.90;99.90;;;;;;4946545;28;20048;-48
2023/07/10 06:13:25;;;;;;;10.02;3.90;;;18.90;99.90;;;;;;4929524;28;20098;-47
2023/07/10 06:15:54;;;;;;;11.52;3.65;;;18.80;99.90;;;;;;4946958;28;20503;-48
2023/07/10 06:18:20;;;;;;;10.07;4.18;;;18.80;99.90;;;;;;4945877;28;20043;-49
2023/07/10 06:20:59;;;;;;;11.35;4.15;;;18.90;99.90;;;;;;4947494;28;20035;-48
2023/07/10 06:23:26;;;;;;;9.90;4.00;;;18.90;99.90;;;;;;4947750;28;20067;-49
2023/07/10 06:25:52;;;;;;;8.70;3.97;;;18.90;99.90;;;;;;4936371;28;20031;-47
2023/07/10 06:28:18;;;;;;;8.63;3.65;;;19.00;99.90;;;;;;4935645;28;20148;-52
2023/07/10 06:30:54;;;;;;;8.45;3.80;;;19.10;99.90;;;;;;4954001;28;20081;-49
2023/07/10 06:33:20;;;;;;;10.00;3.30;;;19.10;99.90;;;;;;4953613;28;20372;-51
2023/07/10 06:35:45;;;;;;;7.78;3.95;;;19.10;99.90;;;;;;4955330;28;20043;-51
2023/07/10 06:38:11;;;;;;;10.27;3.88;;;19.20;99.90;;;;;;4955442;28;20046;-48
2023/07/10 06:40:36;;;;;;;8.27;3.38;;;19.20;99.90;;;;;;4955546;28;20121;-48
2023/07/10 06:43:02;;;;;;;9.68;3.45;;;19.30;99.90;;;;;;4955403;28;20046;-45
2023/07/10 06:45:28;;;;;;;10.18;3.15;;;19.30;99.90;;;;;;4955024;28;20046;-47
2023/07/10 06:47:53;;;;;;;10.13;3.25;;;19.40;99.90;;;;;;4955157;28;20086;-47
2023/07/10 06:50:19;;;;;;;10.65;3.25;;;19.50;99.90;;;;;;4955408;28;20395;-47
2023/07/10 06:52:45;;;;;;;8.27;3.63;;;19.50;99.90;;;;;;4954979;28;20047;-49
2023/07/10 06:55:16;;;;;;;12.02;4.60;;;19.60;99.90;;;;;;4965393;28;20039;-47
2023/07/10 06:57:42;;;;;;;9.82;3.75;;;19.60;99.90;;;;;;4936791;28;20070;-53
2023/07/10 07:00:11;;;;;;;8.30;3.22;;;19.60;99.90;;;;;;4951897;28;20134;-47
2023/07/10 07:02:37;;;;;;;11.85;3.28;;;19.70;99.90;;;;;;4953480;28;20043;-47
2023/07/10 07:05:04;;;;;;;8.30;2.90;;;19.70;99.90;;;;;;4936858;28;20040;-48
2023/07/10 07:07:30;;;;;;;8.15;3.10;;;19.70;99.90;;;;;;4954785;28;20039;-47
2023/07/10 07:09:56;;;;;;;10.18;3.13;;;19.80;99.90;;;;;;4954550;28;20583;-48
2023/07/10 07:12:21;;;;;;;8.43;2.78;;;19.80;99.90;;;;;;4971794;28;20059;-47
2023/07/10 07:14:47;;;;;;;11.52;3.40;;;19.80;99.90;;;;;;4964284;28;20126;-49
2023/07/10 07:17:14;;;;;;;7.80;3.13;;;19.80;99.90;;;;;;4954359;28;20046;-50
2023/07/10 07:19:41;;;;;;;7.13;2.65;;;19.90;99.90;;;;;;4954706;28;20059;-48
2023/07/10 07:22:07;;;;;;;10.27;3.60;;;19.90;99.90;;;;;;4957301;28;20023;-48
2023/07/10 07:24:33;;;;;;;8.77;3.00;;;20.00;99.90;;;;;;4973910;28;20050;-44
2023/07/10 07:26:59;;;;;;;8.60;3.20;;;20.00;99.90;;;;;;4958608;28;20039;-48
2023/07/10 07:29:27;;;;;;;8.60;3.08;;;20.00;99.90;;;;;;4953787;28;20079;-50
2023/07/10 07:31:52;;;;;;;9.57;3.00;;;20.00;99.90;;;;;;4935478;29;20046;-46
2023/07/10 07:34:18;;;;;;;8.70;2.63;;;20.20;99.90;;;;;;4935381;28;20399;-45
2023/07/10 07:36:44;;;;;;;9.00;2.95;;;20.20;99.90;;;;;;4952170;28;20050;-46
2023/07/10 07:39:09;;;;;;;7.95;2.58;;;20.20;99.90;;;;;;4953586;28;20044;-48
2023/07/10 07:41:35;;;;;;;9.85;2.70;;;20.30;99.90;;;;;;4953801;28;20043;-47
2023/07/10 07:44:02;;;;;;;7.07;2.30;;;20.30;99.90;;;;;;4953752;28;20050;-48
2023/07/10 07:46:29;;;;;;;8.82;3.33;;;20.40;99.90;;;;;;4952044;28;20077;-48
2023/07/10 07:48:54;;;;;;;12.48;2.90;;;20.40;99.90;;;;;;4953704;28;20074;-48
2023/07/10 07:51:20;;;;;;;7.32;3.15;;;20.50;99.90;;;;;;4952716;28;20074;-50
2023/07/10 07:53:46;;;;;;;8.18;2.53;;;20.50;99.90;;;;;;4953932;28;20487;-51
2023/07/10 07:56:12;;;;;;;10.55;3.05;;;20.50;99.90;;;;;;4953291;28;20431;-47
2023/07/10 07:58:38;;;;;;;10.27;2.85;;;20.60;99.90;;;;;;4953683;28;20035;-49
2023/07/10 08:01:04;;;;;;;17.17;7.30;;;20.50;99.90;;;;;;4953465;28;20422;-47
2023/07/10 08:03:30;;;;;;;12.80;4.20;;;20.60;99.90;;;;;;4950916;28;20042;-49
2023/07/10 08:05:56;;;;;;;16.30;4.05;;;20.60;99.90;;;;;;4932586;28;20408;-47
2023/07/10 08:08:22;;;;;;;9.75;3.40;;;20.70;99.90;;;;;;4953355;28;20114;-49
2023/07/10 08:10:49;;;;;;;10.23;3.47;;;20.70;99.90;;;;;;4953170;28;20047;-48
2023/07/10 08:13:17;;;;;;;12.75;3.38;;;20.80;99.90;;;;;;4952785;28;20073;-49
2023/07/10 08:15:43;;;;;;;11.98;3.00;;;20.80;99.90;;;;;;4953383;28;20082;-47
2023/07/10 08:18:09;;;;;;;10.13;3.25;;;20.80;99.90;;;;;;4952434;28;20043;-47
2023/07/10 08:20:36;;;;;;;11.95;3.22;;;20.90;99.90;;;;;;4951498;28;20485;-46
2023/07/10 08:23:03;;;;;;;10.55;3.50;;;20.80;99.90;;;;;;4952979;28;20042;-48
2023/07/10 08:25:29;;;;;;;11.73;3.63;;;20.90;99.90;;;;;;4952577;28;20046;-48
2023/07/10 08:27:56;;;;;;;10.80;3.10;;;20.90;99.90;;;;;;4952754;28;20187;-48
2023/07/10 08:30:22;;;;;;;9.57;2.47;;;20.90;99.90;;;;;;4952006;28;20467;-51
2023/07/10 08:32:48;;;;;;;11.25;3.38;;;21.00;99.90;;;;;;4933898;28;20047;-49
2023/07/10 08:35:14;;;;;;;9.32;3.45;;;21.00;99.90;;;;;;4950544;28;20046;-49
2023/07/10 08:37:40;;;;;;;11.52;3.33;;;20.90;99.90;;;;;;4951772;28;20067;-53
2023/07/10 08:40:10;;;;;;;9.40;2.85;;;20.90;99.90;;;;;;4950980;28;20035;-48
2023/07/10 08:42:36;;;;;;;10.43;2.70;;;20.90;99.90;;;;;;4951461;28;20035;-49
2023/07/10 08:45:02;;;;;;;11.48;2.90;;;20.90;99.90;;;;;;4952332;28;20130;-47
2023/07/10 08:47:36;;;;;;;13.40;2.47;;;21.00;99.90;;;;;;4952893;28;20406;-50
2023/07/10 08:50:23;;;;;;;8.52;2.28;;;21.10;99.90;;;;;;4952488;28;20501;-48
2023/07/10 08:53:11;;;;;;;13.35;3.25;;;21.10;99.90;;;;;;4952695;28;20054;-46
2023/07/10 08:55:43;;;;;;;10.00;3.30;;;21.20;99.90;;;;;;4952032;28;20134;-48
2023/07/10 08:58:22;;;;;;;8.52;2.63;;;21.20;99.90;;;;;;4951761;28;20042;-46
2023/07/10 09:00:53;;;;;;;10.48;3.00;;;21.30;99.90;;;;;;4952444;28;20047;-49
2023/07/10 09:03:37;;;;;;;8.82;2.38;;;21.40;99.90;;;;;;4930206;28;20075;-51
2023/07/10 09:06:04;;;;;;;14.93;3.00;;;21.50;99.90;;;;;;4931870;28;20483;-52
2023/07/10 09:08:32;;;;;;;8.32;2.72;;;21.60;99.90;;;;;;4951922;28;20039;-50
2023/07/10 09:11:03;;;;;;;10.93;2.88;;;21.60;99.90;;;;;;4951328;28;20055;-51
2023/07/10 09:13:57;;;;;;;12.15;3.13;;;21.70;99.90;;;;;;4951871;28;20182;-48
2023/07/10 09:16:23;;;;;;;10.82;2.70;;;21.80;99.90;;;;;;4951765;28;20134;-50
2023/07/10 09:19:15;;;;;;;12.25;2.90;;;22.00;99.90;;;;;;4951536;28;20043;-49
2023/07/10 09:21:42;;;;;;;12.07;2.97;;;22.10;99.90;;;;;;4932037;28;20031;-47
2023/07/10 09:24:16;;;;;;;8.85;2.10;;;22.20;99.90;;;;;;4951925;28;20479;-46
2023/07/10 09:26:42;;;;;;;10.68;2.90;;;22.40;99.90;;;;;;4952393;28;20039;-51
2023/07/10 09:29:11;;;;;;;8.63;2.08;;;22.60;99.90;;;;;;4951920;28;20467;-48
2023/07/10 09:32:02;;;;;;;13.05;4.88;;;22.70;99.90;;;;;;4952060;28;20419;-50
2023/07/10 09:34:31;;;;;;;14.35;3.67;;;22.80;99.90;;;;;;4950779;28;20043;-51
2023/07/10 09:36:59;;;;;;;11.70;3.10;;;22.90;99.90;;;;;;4951941;28;20099;-48
2023/07/10 09:39:27;;;;;;;8.98;2.63;;;23.00;99.90;;;;;;4954850;28;20035;-49
2023/07/10 09:41:56;;;;;;;11.18;2.78;;;23.10;99.90;;;;;;4950247;28;20471;-50
2023/07/10 09:44:22;;;;;;;9.30;2.35;;;23.20;99.90;;;;;;4950975;28;20046;-49
2023/07/10 09:46:49;;;;;;;12.35;2.80;;;23.20;99.90;;;;;;4951678;28;20715;-50
2023/07/10 09:49:24;;;;;;;9.77;2.58;;;23.20;99.90;;;;;;4932882;28;20150;-48
2023/07/10 09:52:00;;;;;;;10.07;2.38;;;23.10;99.90;;;;;;4950146;28;20075;-47
2023/07/10 09:54:38;;;;;;;9.15;2.90;;;23.20;99.90;;;;;;4951008;28;20055;-50
2023/07/10 09:57:12;;;;;;;12.13;2.92;;;23.30;99.90;;;;;;4951259;28;20109;-49
2023/07/10 09:59:37;;;;;;;12.43;2.85;;;23.40;99.90;;;;;;4951724;28;20141;-50
2023/07/10 10:02:22;;;;;;;10.07;3.17;;;23.50;99.90;;;;;;4951322;28;20130;-48
2023/07/10 10:05:19;;;;;;;10.85;2.92;;;23.60;99.90;;;;;;4949994;28;20053;-48
2023/07/10 10:07:53;;;;;;;9.75;2.78;;;23.70;99.90;;;;;;4947829;28;20514;-47
2023/07/10 10:10:26;;;;;;;9.35;2.42;;;23.80;99.90;;;;;;4935948;28;20066;-47
2023/07/10 10:13:31;;;;;;;8.45;2.40;;;23.80;99.90;;;;;;4953752;28;20055;-45
2023/07/10 10:16:06;;;;;;;10.27;2.25;;;24.00;99.90;;;;;;4912041;28;20221;-47
2023/07/10 10:18:50;;;;;;;9.30;2.60;;;24.20;99.90;;;;;;4934365;28;20131;-50
2023/07/10 10:21:18;;;;;;;11.55;2.70;;;24.30;99.90;;;;;;4955209;28;20035;-48
2023/07/10 10:23:47;;;;;;;8.70;2.08;;;24.30;99.90;;;;;;4954024;28;20073;-50
2023/07/10 10:26:12;;;;;;;8.73;1.98;;;24.30;99.90;;;;;;4929796;28;20797;-50
2023/07/10 10:28:58;;;;;;;10.25;2.20;;;24.20;99.90;;;;;;4945849;28;20074;-47
2023/07/10 10:31:29;;;;;;;11.98;2.38;;;24.10;99.90;;;;;;4928124;28;20047;-48
2023/07/10 10:34:00;;;;;;;8.18;2.38;;;24.00;99.90;;;;;;4943043;28;20035;-46
2023/07/10 10:36:46;;;;;;;10.45;2.33;;;24.00;99.90;;;;;;4945937;28;20046;-51
2023/07/10 10:39:40;;;;;;;7.93;2.10;;;24.00;99.90;;;;;;4945076;28;20059;-46
2023/07/10 10:42:26;;;;;;;9.63;1.88;;;24.00;99.90;;;;;;4943612;28;20051;-49
2023/07/10 10:45:10;;;;;;;10.07;2.35;;;23.90;99.90;;;;;;4942624;28;20039;-49
2023/07/10 10:47:50;;;;;;;11.05;2.33;;;23.90;99.90;;;;;;4945597;28;20035;-48
2023/07/10 10:50:25;;;;;;;9.23;2.00;;;24.00;99.90;;;;;;4941788;28;20087;-47
2023/07/10 10:52:54;;;;;;;9.57;2.40;;;24.00;99.90;;;;;;4946581;28;20436;-46
2023/07/10 10:55:38;;;;;;;7.95;2.28;;;24.00;99.90;;;;;;4943053;28;20505;-49
2023/07/10 10:58:24;;;;;;;7.43;1.98;;;24.10;99.90;;;;;;4945801;28;20046;-46
2023/07/10 11:00:53;;;;;;;10.07;2.10;;;24.20;99.90;;;;;;4945020;28;20465;-52
2023/07/10 11:03:44;;;;;;;10.45;2.00;;;24.20;99.90;;;;;;4945316;28;20390;-51
2023/07/10 11:06:18;;;;;;;9.73;1.80;;;24.30;99.90;;;;;;4945248;28;20067;-49
2023/07/10 11:08:49;;;;;;;12.80;1.90;;;24.40;99.90;;;;;;4944730;28;20496;-51
2023/07/10 11:11:28;;;;;;;7.32;1.95;;;24.50;99.90;;;;;;4927907;28;20525;-49
2023/07/10 11:13:54;;;;;;;7.70;1.60;;;24.40;99.90;;;;;;4944115;28;20478;-48
2023/07/10 11:16:20;;;;;;;8.65;1.70;;;24.60;99.90;;;;;;4945694;28;20027;-52
2023/07/10 11:18:46;;;;;;;8.40;1.75;;;24.60;99.90;;;;;;4945114;28;20483;-50
2023/07/10 11:21:12;;;;;;;8.52;1.75;;;24.60;99.90;;;;;;4944106;28;20479;-51
2023/07/10 11:23:41;;;;;;;7.70;1.63;;;24.60;99.90;;;;;;4927258;28;20177;-50
2023/07/10 11:26:27;;;;;;;7.13;1.65;;;24.70;99.90;;;;;;4945788;28;20168;-47
2023/07/10 11:28:54;;;;;;;7.15;1.70;;;24.80;99.90;;;;;;4944588;28;20402;-46
2023/07/10 11:31:40;;;;;;;7.63;1.70;;;24.90;99.90;;;;;;4944657;28;20500;-50
2023/07/10 11:34:06;;;;;;;11.73;3.55;;;25.00;99.90;;;;;;4944724;28;20039;-51
2023/07/10 11:36:36;;;;;;;11.10;4.35;;;24.90;99.90;;;;;;4945524;28;20036;-49
2023/07/10 11:39:05;;;;;;;9.32;1.90;;;24.90;99.90;;;;;;4945406;28;20122;-55
2023/07/10 11:41:58;;;;;;;6.78;1.60;;;25.00;99.90;;;;;;4944898;28;20502;-50
2023/07/10 11:44:27;;;;;;;5.68;1.40;;;25.10;99.90;;;;;;4927471;28;20057;-50
2023/07/10 11:47:05;;;;;;;8.18;1.52;;;25.20;99.90;;;;;;4945311;28;20579;-50
2023/07/10 11:49:54;;;;;;;8.75;1.55;;;25.30;99.90;;;;;;4944433;28;20045;-45
2023/07/10 11:52:19;;;;;;;6.22;1.40;;;25.30;99.90;;;;;;4944341;28;20103;-47
2023/07/10 11:54:48;;;;;;;4.68;1.05;;;25.40;99.90;;;;;;4945001;28;20047;-44
2023/07/10 11:57:28;;;;;;;6.03;1.20;;;25.50;99.90;;;;;;4945802;28;20040;-50
2023/07/10 11:59:58;;;;;;;8.45;1.60;;;25.40;99.90;;;;;;4944475;28;20035;-49
2023/07/10 12:02:31;;;;;;;4.80;1.17;;;25.30;99.90;;;;;;4945274;28;20035;-48
2023/07/10 12:05:02;;;;;;;6.05;0.98;;;25.40;99.90;;;;;;4943500;28;20035;-46
2023/07/10 12:07:28;;;;;;;5.93;1.30;;;25.40;99.90;;;;;;4944549;28;20066;-47
2023/07/10 12:09:57;;;;;;;7.15;1.30;;;25.50;99.90;;;;;;4944558;28;20035;-50
2023/07/10 12:12:23;;;;;;;7.93;1.48;;;25.80;99.90;;;;;;4944042;28;20193;-48
2023/07/10 12:14:49;;;;;;;7.53;2.40;;;25.90;99.90;;;;;;4944299;28;20504;-49
2023/07/10 12:17:18;;;;;;;9.80;2.28;;;25.90;99.90;;;;;;4946848;28;20507;-47
2023/07/10 12:19:45;;;;;;;6.80;1.63;;;25.90;99.90;;;;;;4935535;28;20194;-51
2023/07/10 12:22:23;;;;;;;8.30;1.48;;;25.80;99.90;;;;;;4951328;28;20047;-51
2023/07/10 12:24:51;;;;;;;6.20;1.23;;;25.80;99.60;;;;;;4951220;28;20210;-49
2023/07/10 12:27:19;;;;;;;7.60;1.50;;;25.80;99.70;;;;;;4934789;28;20086;-50
2023/07/10 12:29:54;;;;;;;5.70;1.15;;;25.80;99.60;;;;;;4953528;28;20035;-49
2023/07/10 12:32:22;;;;;;;5.88;1.60;;;25.80;98.30;;;;;;4953389;28;20411;-48
2023/07/10 12:34:48;;;;;;;5.53;1.27;;;25.80;99.30;;;;;;4972324;28;20049;-47
2023/07/10 12:37:16;;;;;;;9.40;1.45;;;25.80;99.70;;;;;;4972678;28;20046;-51
2023/07/10 12:39:47;;;;;;;5.45;1.45;;;25.90;99.90;;;;;;4972233;28;20035;-50
2023/07/10 12:42:36;;;;;;;5.43;1.17;;;26.00;99.90;;;;;;4972451;28;20133;-52
2023/07/10 12:45:07;;;;;;;3.65;1.17;;;26.30;99.50;;;;;;4972015;28;20039;-51
2023/07/10 12:47:34;;;;;;;7.25;1.50;;;26.30;99.60;;;;;;4964535;28;20505;-51
2023/07/10 12:50:00;;;;;;;7.43;1.30;;;26.50;99.80;;;;;;4966885;28;20134;-49
2023/07/10 12:52:37;;;;;;;5.93;1.08;;;26.70;99.90;;;;;;4953027;28;20047;-53